Julian, CA

10:31 AM PST on December 28, 2014 (GMT -0800)
Pinezanita RV Park & Campgrounds | Change Station
CLOSE
Current Station
Personal Weather Station
Location: Julian, CA
Elevation: 4698 ft
Nearby Weather Stations

Elev 4698 ft 33.04 °N, 116.56 °W | Updated 2 seconds ago

Mostly Cloudy
Mostly Cloudy
43.2 °F
Feels Like 40 °F
N
4.9
Wind Variable Wind from WNW
Gusts 6.0 mph

Today
High -- | Low -- °F
--% Chance of Precip.
Yesterday
High -- | Low -- °F
Precip. -- in
6:48 AM 4:47 PM
Waxing Crescent, 50% visible
Pressure 30.20 in
Visibility -9999.0 miles
Clouds
Windchill 40 °F
Dew Point 10 °F
Humidity 25%
Rainfall 0.00 in
Snow Depth Not available.
UV Not available.
Pollen 5.50 out of 12
Air Quality Not available.
Flu Activity Not available.
METAR KCZZ 281752Z AUTO 00000KT 07/M11 A3021 RMK AO1 SLP227 T00721111 10072 21056 51007

More Conditions Fewer Conditions

Pressure 30.20 in
Visibility -9999.0 miles
Clouds
Windchill 40 °F
Dew Point 10 °F
Humidity 25%
Rainfall 0.00 in
Snow Depth Not available.
UV Not available.
Pollen 5.50 out of 12
Air Quality Not available.
Flu Activity Not available.
METAR KCZZ 281752Z AUTO 00000KT 07/M11 A3021 RMK AO1 SLP227 T00721111 10072 21056 51007

More Conditions Fewer Conditions

10-Day Weather Forecast

Almanac

Astronomy

Dec. 28, 2014 Rise Set
Actual Time
Civil Twilight
Nautical Twilight
Astronomical Twilight
Moon
Length of Visible Light
Length of Day
Tomorrow will be .
, % of the Moon is Illuminated

Today's Extremes

State Highs State Lows

Community

WunderPhotos

Upload Photos

1,781,379 photos uploaded!

WunderBlogs® & News

Nearby

Air Quality

  Air Quality AQ Index Pollutant
Not available.

Snow Depth

Station Depth Elevation

Earthquake Activity

City Distance Mag. Time & Date
Minimum magnitude displayed is 2.5.

Coastal Water Temperatures

Place Temperature

Nearby Weather Stations